createdAt,value
2023-02-09T00:15:52.732Z,72.47
2023-02-09T00:44:15.415Z,72.96
2023-02-09T01:12:44.825Z,71.32
2023-02-09T01:41:05.429Z,73.06
2023-02-09T02:09:20.513Z,72.49
2023-02-09T02:37:38.027Z,73.88
2023-02-09T03:06:02.558Z,76.25
2023-02-09T03:34:11.540Z,74.81
2023-02-09T04:02:27.867Z,75.5
2023-02-09T04:30:47.992Z,76.3
2023-02-09T04:59:02.921Z,77.91
2023-02-09T05:27:13.752Z,80.34
2023-02-09T05:55:32.065Z,79.19
2023-02-09T06:23:51.921Z,79.99
2023-02-09T06:52:15.174Z,80.84
2023-02-09T07:20:31.761Z,80.48
2023-02-09T07:48:52.084Z,78.38
2023-02-09T08:17:43.521Z,64.69
2023-02-09T08:46:11.641Z,57.55
2023-02-09T09:14:28.029Z,56.75
2023-02-09T09:42:49.212Z,57
2023-02-09T10:11:31.896Z,55.35
2023-02-09T10:40:03.651Z,51.56
2023-02-09T11:08:36.862Z,48.51
2023-02-09T11:36:31.130Z,45.92
2023-02-09T12:05:02.344Z,45.49
2023-02-09T12:33:28.323Z,49.02
2023-02-09T13:01:31.367Z,51.95
2023-02-09T13:30:19.356Z,52.94
2023-02-09T13:59:16.248Z,53.29
2023-02-09T14:28:10.722Z,56.21
2023-02-09T14:57:03.622Z,56.46
2023-02-09T15:25:56.337Z,57.43
2023-02-09T15:54:43.960Z,57.92
2023-02-09T16:23:20.735Z,59.76
2023-02-09T16:51:14.694Z,62.54
2023-02-09T17:19:24.226Z,64.91
2023-02-09T17:47:34.875Z,68.21
2023-02-09T18:15:50.983Z,71.46
2023-02-09T18:44:05.508Z,75.4
2023-02-09T19:12:19.748Z,76.08
2023-02-09T19:40:34.525Z,77.86
2023-02-09T20:08:55.441Z,77.99
2023-02-09T20:37:16.253Z,80.34
2023-02-09T21:05:24.411Z,85.14
2023-02-09T21:33:35.930Z,88.52
2023-02-09T22:01:59.711Z,86.35
2023-02-09T22:30:07.891Z,88.12
2023-02-09T22:58:27.387Z,88.54
2023-02-09T23:26:42.283Z,88.98
2023-02-09T23:54:58.320Z,89.31
